sensor_id;sensor_type;location;lat;lon;timestamp;temperature;humidity
5705;DHT22;2877;48.238;11.160;2022-11-23T00:01:37;3.90;99.90
5705;DHT22;2877;48.238;11.160;2022-11-23T00:04:05;3.90;99.90
5705;DHT22;2877;48.238;11.160;2022-11-23T00:06:32;3.90;99.90
5705;DHT22;2877;48.238;11.160;2022-11-23T00:08:58;3.90;99.90
5705;DHT22;2877;48.238;11.160;2022-11-23T00:11:25;3.90;99.90
5705;DHT22;2877;48.238;11.160;2022-11-23T00:13:51;3.90;99.90
5705;DHT22;2877;48.238;11.160;2022-11-23T00:16:25;4.00;99.90
5705;DHT22;2877;48.238;11.160;2022-11-23T00:18:55;4.00;99.90
5705;DHT22;2877;48.238;11.160;2022-11-23T00:21:22;4.00;99.90
5705;DHT22;2877;48.238;11.160;2022-11-23T00:23:49;4.00;99.90
5705;DHT22;2877;48.238;11.160;2022-11-23T00:26:16;4.10;99.90
5705;DHT22;2877;48.238;11.160;2022-11-23T00:28:41;4.10;99.90
5705;DHT22;2877;48.238;11.160;2022-11-23T00:31:09;4.10;99.90
5705;DHT22;2877;48.238;11.160;2022-11-23T00:33:35;4.00;99.90
5705;DHT22;2877;48.238;11.160;2022-11-23T00:36:03;3.90;99.90
5705;DHT22;2877;48.238;11.160;2022-11-23T00:38:30;3.90;99.90
5705;DHT22;2877;48.238;11.160;2022-11-23T00:40:57;3.70;99.90
5705;DHT22;2877;48.238;11.160;2022-11-23T00:43:24;3.70;99.90
5705;DHT22;2877;48.238;11.160;2022-11-23T00:45:49;3.60;99.90
5705;DHT22;2877;48.238;11.160;2022-11-23T00:48:15;3.60;99.90
5705;DHT22;2877;48.238;11.160;2022-11-23T00:50:41;3.60;99.90
5705;DHT22;2877;48.238;11.160;2022-11-23T00:53:06;3.60;99.90
5705;DHT22;2877;48.238;11.160;2022-11-23T00:55:32;3.60;99.90
5705;DHT22;2877;48.238;11.160;2022-11-23T00:57:57;3.70;99.90
5705;DHT22;2877;48.238;11.160;2022-11-23T01:00:23;3.70;99.90
5705;DHT22;2877;48.238;11.160;2022-11-23T01:02:48;3.60;99.90
5705;DHT22;2877;48.238;11.160;2022-11-23T01:05:14;3.50;99.90
5705;DHT22;2877;48.238;11.160;2022-11-23T01:07:39;3.50;99.90
5705;DHT22;2877;48.238;11.160;2022-11-23T01:10:05;3.40;99.90
5705;DHT22;2877;48.238;11.160;2022-11-23T01:12:32;3.40;99.90
5705;DHT22;2877;48.238;11.160;2022-11-23T01:14:58;3.30;99.90
5705;DHT22;2877;48.238;11.160;2022-11-23T01:17:23;3.30;99.90
5705;DHT22;2877;48.238;11.160;2022-11-23T01:19:49;3.30;99.90
5705;DHT22;2877;48.238;11.160;2022-11-23T01:22:14;3.20;99.90
5705;DHT22;2877;48.238;11.160;2022-11-23T01:24:40;3.20;99.90
5705;DHT22;2877;48.238;11.160;2022-11-23T01:27:05;3.10;99.90
5705;DHT22;2877;48.238;11.160;2022-11-23T01:29:31;3.10;99.90
5705;DHT22;2877;48.238;11.160;2022-11-23T01:31:57;3.20;99.90
5705;DHT22;2877;48.238;11.160;2022-11-23T01:34:22;3.30;99.90
5705;DHT22;2877;48.238;11.160;2022-11-23T01:36:48;3.30;99.90
5705;DHT22;2877;48.238;11.160;2022-11-23T01:39:13;3.30;99.90
5705;DHT22;2877;48.238;11.160;2022-11-23T01:41:41;3.40;99.90
5705;DHT22;2877;48.238;11.160;2022-11-23T01:44:26;3.50;99.90
5705;DHT22;2877;48.238;11.160;2022-11-23T01:46:52;3.60;99.90
5705;DHT22;2877;48.238;11.160;2022-11-23T01:49:18;3.60;99.90
5705;DHT22;2877;48.238;11.160;2022-11-23T01:51:45;3.70;99.90
5705;DHT22;2877;48.238;11.160;2022-11-23T01:54:23;3.70;99.90
5705;DHT22;2877;48.238;11.160;2022-11-23T01:56:54;3.80;99.90
5705;DHT22;2877;48.238;11.160;2022-11-23T01:59:22;3.90;99.90
5705;DHT22;2877;48.238;11.160;2022-11-23T02:01:49;3.90;99.90
5705;DHT22;2877;48.238;11.160;2022-11-23T02:04:19;3.90;99.90
5705;DHT22;2877;48.238;11.160;2022-11-23T02:06:47;3.80;99.90
5705;DHT22;2877;48.238;11.160;2022-11-23T02:09:14;3.80;99.90
5705;DHT22;2877;48.238;11.160;2022-11-23T02:11:40;3.80;99.90
5705;DHT22;2877;48.238;11.160;2022-11-23T02:14:06;3.80;99.90
5705;DHT22;2877;48.238;11.160;2022-11-23T02:16:32;3.80;99.90
5705;DHT22;2877;48.238;11.160;2022-11-23T02:18:58;3.80;99.90
5705;DHT22;2877;48.238;11.160;2022-11-23T02:21:24;3.80;99.90
5705;DHT22;2877;48.238;11.160;2022-11-23T02:24:06;3.80;99.90
5705;DHT22;2877;48.238;11.160;2022-11-23T02:26:35;3.80;99.90
5705;DHT22;2877;48.238;11.160;2022-11-23T02:29:22;3.80;99.90
5705;DHT22;2877;48.238;11.160;2022-11-23T02:31:48;3.70;99.90
5705;DHT22;2877;48.238;11.160;2022-11-23T02:34:16;3.70;99.90
5705;DHT22;2877;48.238;11.160;2022-11-23T02:36:47;3.70;99.90
5705;DHT22;2877;48.238;11.160;2022-11-23T02:39:19;3.70;99.90
5705;DHT22;2877;48.238;11.160;2022-11-23T02:41:48;3.70;99.90
5705;DHT22;2877;48.238;11.160;2022-11-23T02:47:09;3.70;99.90
5705;DHT22;2877;48.238;11.160;2022-11-23T02:49:35;3.70;99.90
5705;DHT22;2877;48.238;11.160;2022-11-23T02:52:02;3.70;99.90
5705;DHT22;2877;48.238;11.160;2022-11-23T02:54:27;3.70;99.90
5705;DHT22;2877;48.238;11.160;2022-11-23T02:56:53;3.60;99.90
5705;DHT22;2877;48.238;11.160;2022-11-23T02:59:19;3.60;99.90
5705;DHT22;2877;48.238;11.160;2022-11-23T03:01:45;3.60;99.90
5705;DHT22;2877;48.238;11.160;2022-11-23T03:04:11;3.60;99.90
5705;DHT22;2877;48.238;11.160;2022-11-23T03:06:37;3.50;99.90
5705;DHT22;2877;48.238;11.160;2022-11-23T03:09:03;3.50;99.90
5705;DHT22;2877;48.238;11.160;2022-11-23T03:11:28;3.50;99.90
5705;DHT22;2877;48.238;11.160;2022-11-23T03:13:54;3.60;99.90
5705;DHT22;2877;48.238;11.160;2022-11-23T03:16:20;3.60;99.90
5705;DHT22;2877;48.238;11.160;2022-11-23T03:18:45;3.60;99.90
5705;DHT22;2877;48.238;11.160;2022-11-23T03:21:11;3.50;99.90
5705;DHT22;2877;48.238;11.160;2022-11-23T03:23:37;3.40;99.90
5705;DHT22;2877;48.238;11.160;2022-11-23T03:26:03;3.40;99.90
5705;DHT22;2877;48.238;11.160;2022-11-23T03:28:28;3.40;99.90
5705;DHT22;2877;48.238;11.160;2022-11-23T03:30:54;3.40;99.90
5705;DHT22;2877;48.238;11.160;2022-11-23T03:33:20;3.30;99.90
5705;DHT22;2877;48.238;11.160;2022-11-23T03:35:46;3.20;99.90
5705;DHT22;2877;48.238;11.160;2022-11-23T03:38:12;3.20;99.90
5705;DHT22;2877;48.238;11.160;2022-11-23T03:40:38;3.20;99.90
5705;DHT22;2877;48.238;11.160;2022-11-23T03:43:04;3.10;99.90
5705;DHT22;2877;48.238;11.160;2022-11-23T03:45:30;3.10;99.90
5705;DHT22;2877;48.238;11.160;2022-11-23T03:47:55;3.10;99.90
5705;DHT22;2877;48.238;11.160;2022-11-23T03:50:21;3.10;99.90
5705;DHT22;2877;48.238;11.160;2022-11-23T03:52:50;3.10;99.90
5705;DHT22;2877;48.238;11.160;2022-11-23T03:55:16;3.20;99.90
5705;DHT22;2877;48.238;11.160;2022-11-23T03:57:41;3.20;99.90
5705;DHT22;2877;48.238;11.160;2022-11-23T04:00:08;3.30;99.90
5705;DHT22;2877;48.238;11.160;2022-11-23T04:02:34;3.30;99.90
5705;DHT22;2877;48.238;11.160;2022-11-23T04:04:59;3.30;99.90
5705;DHT22;2877;48.238;11.160;2022-11-23T04:07:26;3.30;99.90
5705;DHT22;2877;48.238;11.160;2022-11-23T04:09:51;3.30;99.90
5705;DHT22;2877;48.238;11.160;2022-11-23T04:12:17;3.30;99.90
5705;DHT22;2877;48.238;11.160;2022-11-23T04:14:42;3.40;99.90
5705;DHT22;2877;48.238;11.160;2022-11-23T04:17:08;3.40;99.90
5705;DHT22;2877;48.238;11.160;2022-11-23T04:19:33;3.40;99.90
5705;DHT22;2877;48.238;11.160;2022-11-23T04:21:59;3.40;99.90
5705;DHT22;2877;48.238;11.160;2022-11-23T04:24:25;3.40;99.90
5705;DHT22;2877;48.238;11.160;2022-11-23T04:26:50;3.40;99.90
5705;DHT22;2877;48.238;11.160;2022-11-23T04:29:16;3.40;99.90
5705;DHT22;2877;48.238;11.160;2022-11-23T04:31:41;3.40;99.90
5705;DHT22;2877;48.238;11.160;2022-11-23T04:34:07;3.50;99.90
5705;DHT22;2877;48.238;11.160;2022-11-23T04:36:32;3.50;99.90
5705;DHT22;2877;48.238;11.160;2022-11-23T04:38:58;3.50;99.90
5705;DHT22;2877;48.238;11.160;2022-11-23T04:41:24;3.50;99.90
5705;DHT22;2877;48.238;11.160;2022-11-23T04:43:49;3.40;99.90
5705;DHT22;2877;48.238;11.160;2022-11-23T04:46:16;3.40;99.90
5705;DHT22;2877;48.238;11.160;2022-11-23T04:48:42;3.40;99.90
5705;DHT22;2877;48.238;11.160;2022-11-23T04:51:07;3.40;99.90
5705;DHT22;2877;48.238;11.160;2022-11-23T04:53:33;3.40;99.90
5705;DHT22;2877;48.238;11.160;2022-11-23T04:55:58;3.40;99.90
5705;DHT22;2877;48.238;11.160;2022-11-23T04:58:24;3.40;99.90
5705;DHT22;2877;48.238;11.160;2022-11-23T05:00:49;3.40;99.90
5705;DHT22;2877;48.238;11.160;2022-11-23T05:03:15;3.40;99.90
5705;DHT22;2877;48.238;11.160;2022-11-23T05:05:41;3.40;99.90
5705;DHT22;2877;48.238;11.160;2022-11-23T05:08:07;3.50;99.90
5705;DHT22;2877;48.238;11.160;2022-11-23T05:10:32;3.50;99.90
5705;DHT22;2877;48.238;11.160;2022-11-23T05:12:58;3.50;99.90
5705;DHT22;2877;48.238;11.160;2022-11-23T05:15:24;3.50;99.90
5705;DHT22;2877;48.238;11.160;2022-11-23T05:17:49;3.50;99.90
5705;DHT22;2877;48.238;11.160;2022-11-23T05:20:15;3.50;99.90
5705;DHT22;2877;48.238;11.160;2022-11-23T05:22:41;3.50;99.90
5705;DHT22;2877;48.238;11.160;2022-11-23T05:25:07;3.50;99.90
5705;DHT22;2877;48.238;11.160;2022-11-23T05:27:32;3.50;99.90
5705;DHT22;2877;48.238;11.160;2022-11-23T05:29:58;3.50;99.90
5705;DHT22;2877;48.238;11.160;2022-11-23T05:32:24;3.50;99.90
5705;DHT22;2877;48.238;11.160;2022-11-23T05:34:49;3.50;99.90
5705;DHT22;2877;48.238;11.160;2022-11-23T05:37:15;3.40;99.90
5705;DHT22;2877;48.238;11.160;2022-11-23T05:39:40;3.40;99.90
5705;DHT22;2877;48.238;11.160;2022-11-23T05:42:06;3.50;99.90
5705;DHT22;2877;48.238;11.160;2022-11-23T05:44:32;3.60;99.90
5705;DHT22;2877;48.238;11.160;2022-11-23T05:46:57;3.60;99.90
5705;DHT22;2877;48.238;11.160;2022-11-23T05:49:23;3.60;99.90
5705;DHT22;2877;48.238;11.160;2022-11-23T05:51:49;3.60;99.90
5705;DHT22;2877;48.238;11.160;2022-11-23T05:54:14;3.50;99.90
5705;DHT22;2877;48.238;11.160;2022-11-23T05:56:40;3.50;99.90
5705;DHT22;2877;48.238;11.160;2022-11-23T05:59:05;3.50;99.90
5705;DHT22;2877;48.238;11.160;2022-11-23T06:01:32;3.50;99.90
5705;DHT22;2877;48.238;11.160;2022-11-23T06:03:58;3.50;99.90
5705;DHT22;2877;48.238;11.160;2022-11-23T06:06:23;3.50;99.90
5705;DHT22;2877;48.238;11.160;2022-11-23T06:08:49;3.50;99.90
5705;DHT22;2877;48.238;11.160;2022-11-23T06:11:15;3.50;99.90
5705;DHT22;2877;48.238;11.160;2022-11-23T06:13:41;3.50;99.90
5705;DHT22;2877;48.238;11.160;2022-11-23T06:16:06;3.50;99.90
5705;DHT22;2877;48.238;11.160;2022-11-23T06:18:32;3.50;99.90
5705;DHT22;2877;48.238;11.160;2022-11-23T06:21:00;3.50;99.90
5705;DHT22;2877;48.238;11.160;2022-11-23T06:23:26;3.50;99.90
5705;DHT22;2877;48.238;11.160;2022-11-23T06:25:52;3.50;99.90
5705;DHT22;2877;48.238;11.160;2022-11-23T06:28:18;3.50;99.90
5705;DHT22;2877;48.238;11.160;2022-11-23T06:30:43;3.50;99.90
5705;DHT22;2877;48.238;11.160;2022-11-23T06:33:09;3.50;99.90
5705;DHT22;2877;48.238;11.160;2022-11-23T06:35:34;3.50;99.90
5705;DHT22;2877;48.238;11.160;2022-11-23T06:38:00;3.50;99.90
5705;DHT22;2877;48.238;11.160;2022-11-23T06:40:26;3.60;99.90
5705;DHT22;2877;48.238;11.160;2022-11-23T06:42:57;3.60;99.90
5705;DHT22;2877;48.238;11.160;2022-11-23T06:45:23;3.60;99.90
5705;DHT22;2877;48.238;11.160;2022-11-23T06:47:48;3.70;99.90
5705;DHT22;2877;48.238;11.160;2022-11-23T06:50:14;3.60;99.90
5705;DHT22;2877;48.238;11.160;2022-11-23T06:52:40;3.60;99.90
5705;DHT22;2877;48.238;11.160;2022-11-23T06:55:06;3.60;99.90
5705;DHT22;2877;48.238;11.160;2022-11-23T06:57:31;3.70;99.90
5705;DHT22;2877;48.238;11.160;2022-11-23T06:59:57;3.70;99.90
5705;DHT22;2877;48.238;11.160;2022-11-23T07:02:22;3.70;99.90
5705;DHT22;2877;48.238;11.160;2022-11-23T07:04:50;3.70;99.90
5705;DHT22;2877;48.238;11.160;2022-11-23T07:07:15;3.70;99.90
5705;DHT22;2877;48.238;11.160;2022-11-23T07:09:41;3.70;99.90
5705;DHT22;2877;48.238;11.160;2022-11-23T07:12:06;3.70;99.90
5705;DHT22;2877;48.238;11.160;2022-11-23T07:14:32;3.80;99.90
5705;DHT22;2877;48.238;11.160;2022-11-23T07:16:58;3.80;99.90
5705;DHT22;2877;48.238;11.160;2022-11-23T07:19:23;3.90;99.90
5705;DHT22;2877;48.238;11.160;2022-11-23T07:21:49;3.90;99.90
5705;DHT22;2877;48.238;11.160;2022-11-23T07:24:14;4.00;99.90
5705;DHT22;2877;48.238;11.160;2022-11-23T07:26:40;4.00;99.90
5705;DHT22;2877;48.238;11.160;2022-11-23T07:29:05;4.10;99.90
5705;DHT22;2877;48.238;11.160;2022-11-23T07:31:31;4.10;99.90
5705;DHT22;2877;48.238;11.160;2022-11-23T07:33:57;4.10;99.90
5705;DHT22;2877;48.238;11.160;2022-11-23T07:36:22;4.10;99.90
5705;DHT22;2877;48.238;11.160;2022-11-23T07:38:48;4.10;99.90
5705;DHT22;2877;48.238;11.160;2022-11-23T07:41:14;4.20;99.90
5705;DHT22;2877;48.238;11.160;2022-11-23T07:43:39;4.20;99.90
5705;DHT22;2877;48.238;11.160;2022-11-23T07:46:05;4.30;99.90
5705;DHT22;2877;48.238;11.160;2022-11-23T07:48:30;4.40;99.90
5705;DHT22;2877;48.238;11.160;2022-11-23T07:50:56;4.50;99.90
5705;DHT22;2877;48.238;11.160;2022-11-23T07:53:21;4.50;99.90
5705;DHT22;2877;48.238;11.160;2022-11-23T07:55:48;4.60;99.90
5705;DHT22;2877;48.238;11.160;2022-11-23T07:58:13;4.70;99.90
5705;DHT22;2877;48.238;11.160;2022-11-23T08:00:39;4.80;99.90
5705;DHT22;2877;48.238;11.160;2022-11-23T08:03:04;4.80;99.90
5705;DHT22;2877;48.238;11.160;2022-11-23T08:05:31;4.90;99.90
5705;DHT22;2877;48.238;11.160;2022-11-23T08:08:01;5.00;99.90
5705;DHT22;2877;48.238;11.160;2022-11-23T08:10:28;5.10;99.90
5705;DHT22;2877;48.238;11.160;2022-11-23T08:13:02;5.10;99.90
5705;DHT22;2877;48.238;11.160;2022-11-23T08:15:27;5.20;99.90
5705;DHT22;2877;48.238;11.160;2022-11-23T08:17:57;5.30;99.90
5705;DHT22;2877;48.238;11.160;2022-11-23T08:20:24;5.40;99.90
5705;DHT22;2877;48.238;11.160;2022-11-23T08:22:49;5.40;99.90
5705;DHT22;2877;48.238;11.160;2022-11-23T08:25:15;5.50;99.90
5705;DHT22;2877;48.238;11.160;2022-11-23T08:27:41;5.60;99.90
5705;DHT22;2877;48.238;11.160;2022-11-23T08:30:07;5.60;99.90
5705;DHT22;2877;48.238;11.160;2022-11-23T08:32:32;5.70;99.90
5705;DHT22;2877;48.238;11.160;2022-11-23T08:34:58;5.70;99.90
5705;DHT22;2877;48.238;11.160;2022-11-23T08:37:23;5.80;99.90
5705;DHT22;2877;48.238;11.160;2022-11-23T08:39:49;5.90;99.90
5705;DHT22;2877;48.238;11.160;2022-11-23T08:42:15;5.90;99.90
5705;DHT22;2877;48.238;11.160;2022-11-23T08:44:41;6.00;99.90
5705;DHT22;2877;48.238;11.160;2022-11-23T08:47:06;6.10;99.90
5705;DHT22;2877;48.238;11.160;2022-11-23T08:49:32;6.10;99.90
5705;DHT22;2877;48.238;11.160;2022-11-23T08:51:57;6.20;99.90
5705;DHT22;2877;48.238;11.160;2022-11-23T08:54:24;6.20;99.90
5705;DHT22;2877;48.238;11.160;2022-11-23T08:56:50;6.30;99.90
5705;DHT22;2877;48.238;11.160;2022-11-23T08:59:16;6.30;99.90
5705;DHT22;2877;48.238;11.160;2022-11-23T09:01:42;6.40;99.90
5705;DHT22;2877;48.238;11.160;2022-11-23T09:04:08;6.50;99.90
5705;DHT22;2877;48.238;11.160;2022-11-23T09:06:34;6.50;99.90
5705;DHT22;2877;48.238;11.160;2022-11-23T09:09:00;6.60;99.90
5705;DHT22;2877;48.238;11.160;2022-11-23T09:11:25;6.70;99.90
5705;DHT22;2877;48.238;11.160;2022-11-23T09:13:51;6.70;99.90
5705;DHT22;2877;48.238;11.160;2022-11-23T09:16:17;6.70;99.90
5705;DHT22;2877;48.238;11.160;2022-11-23T09:18:43;6.70;99.90
5705;DHT22;2877;48.238;11.160;2022-11-23T09:21:09;6.70;99.90
5705;DHT22;2877;48.238;11.160;2022-11-23T09:23:34;6.70;99.90
5705;DHT22;2877;48.238;11.160;2022-11-23T09:26:01;6.60;99.90
5705;DHT22;2877;48.238;11.160;2022-11-23T09:28:28;6.50;99.90
5705;DHT22;2877;48.238;11.160;2022-11-23T09:30:54;6.50;99.90
5705;DHT22;2877;48.238;11.160;2022-11-23T09:33:21;6.50;99.90
5705;DHT22;2877;48.238;11.160;2022-11-23T09:35:55;6.50;99.90
5705;DHT22;2877;48.238;11.160;2022-11-23T09:38:21;6.40;99.90
5705;DHT22;2877;48.238;11.160;2022-11-23T09:40:48;6.40;99.90
5705;DHT22;2877;48.238;11.160;2022-11-23T09:49:14;6.40;99.90
5705;DHT22;2877;48.238;11.160;2022-11-23T09:51:41;6.50;99.90
5705;DHT22;2877;48.238;11.160;2022-11-23T09:54:30;6.60;99.90
5705;DHT22;2877;48.238;11.160;2022-11-23T09:56:56;6.60;99.90
5705;DHT22;2877;48.238;11.160;2022-11-23T09:59:41;6.60;99.90
5705;DHT22;2877;48.238;11.160;2022-11-23T10:02:20;6.70;99.90
5705;DHT22;2877;48.238;11.160;2022-11-23T10:04:47;6.80;99.90
5705;DHT22;2877;48.238;11.160;2022-11-23T10:07:36;6.80;99.90
5705;DHT22;2877;48.238;11.160;2022-11-23T10:16:09;7.00;99.90
5705;DHT22;2877;48.238;11.160;2022-11-23T10:18:46;6.90;99.90
5705;DHT22;2877;48.238;11.160;2022-11-23T10:21:38;7.00;99.90
5705;DHT22;2877;48.238;11.160;2022-11-23T10:26:40;7.10;99.90
5705;DHT22;2877;48.238;11.160;2022-11-23T10:29:19;7.10;99.90
5705;DHT22;2877;48.238;11.160;2022-11-23T10:31:49;7.10;99.90
5705;DHT22;2877;48.238;11.160;2022-11-23T10:37:09;7.10;99.90
5705;DHT22;2877;48.238;11.160;2022-11-23T10:39:36;7.10;99.90
5705;DHT22;2877;48.238;11.160;2022-11-23T10:44:54;7.10;99.90
5705;DHT22;2877;48.238;11.160;2022-11-23T10:48:06;7.20;99.90
5705;DHT22;2877;48.238;11.160;2022-11-23T10:52:57;7.20;99.90
5705;DHT22;2877;48.238;11.160;2022-11-23T10:55:27;7.30;99.90
5705;DHT22;2877;48.238;11.160;2022-11-23T10:57:54;7.30;99.90
5705;DHT22;2877;48.238;11.160;2022-11-23T11:00:21;7.40;99.90
5705;DHT22;2877;48.238;11.160;2022-11-23T11:02:48;7.40;99.90
5705;DHT22;2877;48.238;11.160;2022-11-23T11:07:40;7.40;99.90
5705;DHT22;2877;48.238;11.160;2022-11-23T11:10:25;7.50;99.90
5705;DHT22;2877;48.238;11.160;2022-11-23T11:12:51;7.50;99.90
5705;DHT22;2877;48.238;11.160;2022-11-23T11:15:17;7.50;99.90
5705;DHT22;2877;48.238;11.160;2022-11-23T11:17:42;7.60;99.90
5705;DHT22;2877;48.238;11.160;2022-11-23T11:22:58;7.60;99.90
5705;DHT22;2877;48.238;11.160;2022-11-23T11:25:34;7.60;99.90
5705;DHT22;2877;48.238;11.160;2022-11-23T11:28:03;7.70;99.90
5705;DHT22;2877;48.238;11.160;2022-11-23T11:30:40;7.70;99.90
5705;DHT22;2877;48.238;11.160;2022-11-23T11:33:18;7.60;99.90
5705;DHT22;2877;48.238;11.160;2022-11-23T11:35:48;7.60;99.90
5705;DHT22;2877;48.238;11.160;2022-11-23T11:38:26;7.70;99.90
5705;DHT22;2877;48.238;11.160;2022-11-23T11:40:59;7.70;99.90
5705;DHT22;2877;48.238;11.160;2022-11-23T11:43:40;7.70;99.90
5705;DHT22;2877;48.238;11.160;2022-11-23T11:46:19;7.70;99.90
5705;DHT22;2877;48.238;11.160;2022-11-23T11:49:09;7.70;99.90
5705;DHT22;2877;48.238;11.160;2022-11-23T11:51:48;7.70;99.90
5705;DHT22;2877;48.238;11.160;2022-11-23T11:54:34;7.80;99.90
5705;DHT22;2877;48.238;11.160;2022-11-23T11:57:09;7.80;99.90
5705;DHT22;2877;48.238;11.160;2022-11-23T11:59:42;7.70;99.90
5705;DHT22;2877;48.238;11.160;2022-11-23T12:10:51;7.50;99.90
5705;DHT22;2877;48.238;11.160;2022-11-23T12:13:31;7.40;99.90
5705;DHT22;2877;48.238;11.160;2022-11-23T12:27:00;8.20;99.90
5705;DHT22;2877;48.238;11.160;2022-11-23T12:35:18;8.40;99.90
5705;DHT22;2877;48.238;11.160;2022-11-23T12:43:31;8.30;99.90
5705;DHT22;2877;48.238;11.160;2022-11-23T12:46:38;8.20;99.90
5705;DHT22;2877;48.238;11.160;2022-11-23T12:52:05;8.00;99.90
5705;DHT22;2877;48.238;11.160;2022-11-23T13:00:00;7.80;99.90
5705;DHT22;2877;48.238;11.160;2022-11-23T13:10:56;8.00;99.90
5705;DHT22;2877;48.238;11.160;2022-11-23T13:13:35;8.00;99.90
5705;DHT22;2877;48.238;11.160;2022-11-23T13:16:25;8.00;99.90
5705;DHT22;2877;48.238;11.160;2022-11-23T13:21:43;8.00;99.90
5705;DHT22;2877;48.238;11.160;2022-11-23T13:35:52;7.80;99.90
5705;DHT22;2877;48.238;11.160;2022-11-23T13:38:24;7.70;99.90
5705;DHT22;2877;48.238;11.160;2022-11-23T13:40:49;7.70;99.90
5705;DHT22;2877;48.238;11.160;2022-11-23T13:43:21;7.60;99.90
5705;DHT22;2877;48.238;11.160;2022-11-23T13:46:24;7.50;99.90
5705;DHT22;2877;48.238;11.160;2022-11-23T13:48:57;7.50;99.90
5705;DHT22;2877;48.238;11.160;2022-11-23T13:51:31;7.40;99.90
5705;DHT22;2877;48.238;11.160;2022-11-23T13:54:20;7.40;99.90
5705;DHT22;2877;48.238;11.160;2022-11-23T13:56:56;7.30;99.90
5705;DHT22;2877;48.238;11.160;2022-11-23T13:59:24;7.20;99.90
5705;DHT22;2877;48.238;11.160;2022-11-23T14:04:39;7.10;99.90
5705;DHT22;2877;48.238;11.160;2022-11-23T14:09:51;7.00;99.90
5705;DHT22;2877;48.238;11.160;2022-11-23T14:15:15;6.90;99.90
5705;DHT22;2877;48.238;11.160;2022-11-23T14:23:42;6.80;99.90
5705;DHT22;2877;48.238;11.160;2022-11-23T14:42:51;6.30;99.90
5705;DHT22;2877;48.238;11.160;2022-11-23T14:45:18;6.20;99.90
5705;DHT22;2877;48.238;11.160;2022-11-23T14:47:45;6.10;99.90
5705;DHT22;2877;48.238;11.160;2022-11-23T14:52:46;6.00;99.90
5705;DHT22;2877;48.238;11.160;2022-11-23T14:55:27;5.90;99.90
5705;DHT22;2877;48.238;11.160;2022-11-23T14:58:03;5.80;99.90
5705;DHT22;2877;48.238;11.160;2022-11-23T15:00:37;5.70;99.90
5705;DHT22;2877;48.238;11.160;2022-11-23T15:03:16;5.60;99.90
5705;DHT22;2877;48.238;11.160;2022-11-23T15:05:46;5.50;99.90
5705;DHT22;2877;48.238;11.160;2022-11-23T15:11:04;5.30;99.90
5705;DHT22;2877;48.238;11.160;2022-11-23T15:13:45;5.20;99.90
5705;DHT22;2877;48.238;11.160;2022-11-23T15:16:14;5.10;99.90
5705;DHT22;2877;48.238;11.160;2022-11-23T15:18:40;5.00;99.90
5705;DHT22;2877;48.238;11.160;2022-11-23T15:23:43;4.80;99.90
5705;DHT22;2877;48.238;11.160;2022-11-23T15:26:29;4.80;99.90
5705;DHT22;2877;48.238;11.160;2022-11-23T15:28:55;4.60;99.90
5705;DHT22;2877;48.238;11.160;2022-11-23T15:33:52;4.50;99.90
5705;DHT22;2877;48.238;11.160;2022-11-23T15:36:25;4.40;99.90
5705;DHT22;2877;48.238;11.160;2022-11-23T15:38:53;4.30;99.90
5705;DHT22;2877;48.238;11.160;2022-11-23T15:41:18;4.20;99.90
5705;DHT22;2877;48.238;11.160;2022-11-23T15:43:58;4.20;99.90
5705;DHT22;2877;48.238;11.160;2022-11-23T15:46:27;4.20;99.90
5705;DHT22;2877;48.238;11.160;2022-11-23T15:48:54;4.10;99.90
5705;DHT22;2877;48.238;11.160;2022-11-23T15:51:37;4.00;99.90
5705;DHT22;2877;48.238;11.160;2022-11-23T15:54:04;3.90;99.90
5705;DHT22;2877;48.238;11.160;2022-11-23T15:56:32;3.80;99.90
5705;DHT22;2877;48.238;11.160;2022-11-23T16:01:46;3.60;99.90
5705;DHT22;2877;48.238;11.160;2022-11-23T16:06:57;3.50;99.90
5705;DHT22;2877;48.238;11.160;2022-11-23T16:09:41;3.40;99.90
5705;DHT22;2877;48.238;11.160;2022-11-23T16:12:28;3.30;99.90
5705;DHT22;2877;48.238;11.160;2022-11-23T16:15:28;3.20;99.90
5705;DHT22;2877;48.238;11.160;2022-11-23T16:17:46;3.20;99.90
5705;DHT22;2877;48.238;11.160;2022-11-23T16:20:13;3.10;99.90
5705;DHT22;2877;48.238;11.160;2022-11-23T16:22:41;3.00;99.90
5705;DHT22;2877;48.238;11.160;2022-11-23T16:28:13;2.90;99.90
5705;DHT22;2877;48.238;11.160;2022-11-23T16:30:43;2.80;99.90
5705;DHT22;2877;48.238;11.160;2022-11-23T16:33:18;2.70;99.90
5705;DHT22;2877;48.238;11.160;2022-11-23T16:35:44;2.70;99.90
5705;DHT22;2877;48.238;11.160;2022-11-23T16:38:10;2.70;99.90
5705;DHT22;2877;48.238;11.160;2022-11-23T16:40:37;2.70;99.90
5705;DHT22;2877;48.238;11.160;2022-11-23T16:43:03;2.60;99.90
5705;DHT22;2877;48.238;11.160;2022-11-23T16:45:30;2.60;99.90
5705;DHT22;2877;48.238;11.160;2022-11-23T16:47:58;2.60;99.90
5705;DHT22;2877;48.238;11.160;2022-11-23T16:50:32;2.60;99.90
5705;DHT22;2877;48.238;11.160;2022-11-23T16:53:01;2.60;99.90
5705;DHT22;2877;48.238;11.160;2022-11-23T16:55:36;2.60;99.90
5705;DHT22;2877;48.238;11.160;2022-11-23T16:58:01;2.60;99.90
5705;DHT22;2877;48.238;11.160;2022-11-23T17:00:27;2.50;99.90
5705;DHT22;2877;48.238;11.160;2022-11-23T17:02:53;2.50;99.90
5705;DHT22;2877;48.238;11.160;2022-11-23T17:05:19;2.50;99.90
5705;DHT22;2877;48.238;11.160;2022-11-23T17:07:45;2.50;99.90
5705;DHT22;2877;48.238;11.160;2022-11-23T17:10:12;2.50;99.90
5705;DHT22;2877;48.238;11.160;2022-11-23T17:12:39;2.70;99.90
5705;DHT22;2877;48.238;11.160;2022-11-23T17:15:06;2.80;99.90
5705;DHT22;2877;48.238;11.160;2022-11-23T17:17:32;2.90;99.90
5705;DHT22;2877;48.238;11.160;2022-11-23T17:19:58;3.00;99.90
5705;DHT22;2877;48.238;11.160;2022-11-23T17:22:24;3.20;99.90
5705;DHT22;2877;48.238;11.160;2022-11-23T17:24:49;3.10;99.90
5705;DHT22;2877;48.238;11.160;2022-11-23T17:27:20;3.10;99.90
5705;DHT22;2877;48.238;11.160;2022-11-23T17:29:46;3.00;99.90
5705;DHT22;2877;48.238;11.160;2022-11-23T17:32:13;3.00;99.90
5705;DHT22;2877;48.238;11.160;2022-11-23T17:34:39;2.90;99.90
5705;DHT22;2877;48.238;11.160;2022-11-23T17:37:07;2.90;99.90
5705;DHT22;2877;48.238;11.160;2022-11-23T17:39:35;3.00;99.90
5705;DHT22;2877;48.238;11.160;2022-11-23T17:42:00;3.00;99.90
5705;DHT22;2877;48.238;11.160;2022-11-23T17:44:26;3.00;99.90
5705;DHT22;2877;48.238;11.160;2022-11-23T17:46:53;3.00;99.90
5705;DHT22;2877;48.238;11.160;2022-11-23T17:49:20;3.00;99.90
5705;DHT22;2877;48.238;11.160;2022-11-23T17:51:51;3.00;99.90
5705;DHT22;2877;48.238;11.160;2022-11-23T17:54:17;3.00;99.90
5705;DHT22;2877;48.238;11.160;2022-11-23T17:56:43;3.10;99.90
5705;DHT22;2877;48.238;11.160;2022-11-23T17:59:08;3.10;99.90
5705;DHT22;2877;48.238;11.160;2022-11-23T18:01:34;3.10;99.90
5705;DHT22;2877;48.238;11.160;2022-11-23T18:03:59;3.10;99.90
5705;DHT22;2877;48.238;11.160;2022-11-23T18:06:26;3.10;99.90
5705;DHT22;2877;48.238;11.160;2022-11-23T18:08:52;3.20;99.90
5705;DHT22;2877;48.238;11.160;2022-11-23T18:11:19;3.30;99.90
5705;DHT22;2877;48.238;11.160;2022-11-23T18:13:45;3.40;99.90
5705;DHT22;2877;48.238;11.160;2022-11-23T18:16:13;3.40;99.90
5705;DHT22;2877;48.238;11.160;2022-11-23T18:18:39;3.50;99.90
5705;DHT22;2877;48.238;11.160;2022-11-23T18:21:06;3.60;99.90
5705;DHT22;2877;48.238;11.160;2022-11-23T18:23:32;3.50;99.90
5705;DHT22;2877;48.238;11.160;2022-11-23T18:28:43;3.60;99.90
5705;DHT22;2877;48.238;11.160;2022-11-23T18:31:09;3.60;99.90
5705;DHT22;2877;48.238;11.160;2022-11-23T18:33:35;3.60;99.90
5705;DHT22;2877;48.238;11.160;2022-11-23T18:36:00;3.60;99.90